Time;durP1;ratioP1;P1;durP2;ratioP2;P2;SDS_P1;SDS_P2;PMS_P1;PMS_P2;Temp;Humidity;BMP_temperature;BMP_pressure;BME280_temperature;BME280_humidity;BME280_pressure;Samples;Min_cycle;Max_cycle;Signal;HPM_P1;HPM_P2
2022/02/21 00:01:05;;;;;;;;;8.75;4.50;;;;;12.46;61.79;100803.75;2393250;28;45202;-82
2022/02/21 00:02:16;;;;;;;;;6.75;4.25;;;;;12.44;62.19;100810.84;2393196;28;46556;-83
2022/02/21 00:03:27;;;;;;;;;6.00;5.00;;;;;12.41;61.21;100798.66;2392855;28;45148;-80
2022/02/21 00:04:38;;;;;;;;;7.00;4.00;;;;;12.40;61.15;100827.69;2393019;28;45531;-80
2022/02/21 00:05:49;;;;;;;;;9.00;4.00;;;;;12.36;60.77;100838.38;2393243;28;45275;-81
2022/02/21 00:07:01;;;;;;;;;14.50;7.00;;;;;12.32;60.06;100820.13;2393167;28;45398;-81
2022/02/21 00:08:11;;;;;;;;;7.75;4.25;;;;;12.31;57.83;100811.34;2393476;28;45349;-81
2022/02/21 00:09:21;;;;;;;;;7.25;3.75;;;;;12.26;57.96;100815.94;2393256;28;46271;-81
2022/02/21 00:10:32;;;;;;;;;6.50;3.00;;;;;12.21;57.07;100831.91;2397791;28;45646;-80
2022/02/21 00:11:42;;;;;;;;;8.75;5.25;;;;;12.14;56.13;100826.03;2394989;28;45366;-81
2022/02/21 00:12:52;;;;;;;;;5.50;3.25;;;;;12.13;55.99;100841.88;2394410;28;44671;-82
2022/02/21 00:14:03;;;;;;;;;4.50;3.75;;;;;12.09;52.67;100833.22;2394373;28;45393;-82
2022/02/21 00:15:17;;;;;;;;;9.67;7.00;;;;;12.04;54.78;100829.91;2395011;28;45215;-80
2022/02/21 00:16:28;;;;;;;;;5.50;2.50;;;;;12.00;55.19;100846.75;2393728;28;46622;-82
2022/02/21 00:17:38;;;;;;;;;4.00;1.75;;;;;11.96;55.37;100832.81;2394451;28;45341;-81
2022/02/21 00:18:48;;;;;;;;;7.50;3.00;;;;;11.97;55.65;100824.00;2398016;28;45500;-80
2022/02/21 00:19:59;;;;;;;;;7.25;3.00;;;;;11.97;55.39;100838.94;2394982;28;44686;-81
2022/02/21 00:21:09;;;;;;;;;4.50;3.25;;;;;11.96;54.08;100826.69;2394646;28;46359;-81
2022/02/21 00:22:20;;;;;;;;;7.00;4.00;;;;;11.91;55.84;100825.09;2394934;28;45459;-81
2022/02/21 00:23:30;;;;;;;;;6.50;2.75;;;;;11.95;55.57;100840.78;2394245;28;45428;-81
2022/02/21 00:24:40;;;;;;;;;9.50;4.00;;;;;11.93;55.96;100854.84;2395047;28;45380;-81
2022/02/21 00:25:51;;;;;;;;;8.50;3.50;;;;;11.93;55.78;100854.84;2396158;28;45505;-81
2022/02/21 00:27:01;;;;;;;;;9.00;3.00;;;;;11.91;53.99;100835.63;2400973;28;45388;-81
2022/02/21 00:28:12;;;;;;;;;6.75;4.50;;;;;11.88;53.16;100864.69;2394765;28;45386;-81
2022/02/21 00:29:22;;;;;;;;;9.00;3.75;;;;;11.86;53.78;100858.63;2394942;28;45223;-82
2022/02/21 00:30:32;;;;;;;;;5.25;4.25;;;;;11.82;53.13;100849.13;2393884;28;47342;-83
2022/02/21 00:31:43;;;;;;;;;4.00;3.25;;;;;11.78;50.56;100865.94;2394063;28;45372;-80
2022/02/21 00:32:53;;;;;;;;;1.50;1.50;;;;;11.72;51.08;100863.53;2394613;28;45324;-82
2022/02/21 00:34:05;;;;;;;;;3.25;0.75;;;;;11.68;48.71;100878.59;2394521;28;44766;-80
2022/02/21 00:35:15;;;;;;;;;7.75;3.00;;;;;11.64;51.50;100885.75;2394586;28;45393;-80
2022/02/21 00:36:26;;;;;;;;;2.25;2.25;;;;;11.59;50.50;100871.88;2400669;28;45249;-80
2022/02/21 00:37:36;;;;;;;;;5.50;3.00;;;;;11.56;50.18;100893.03;2395600;28;46111;-81
2022/02/21 00:38:46;;;;;;;;;7.50;3.75;;;;;11.51;51.73;100889.72;2394255;28;45220;-81
2022/02/21 00:39:57;;;;;;;;;2.75;2.75;;;;;11.51;49.07;100895.00;2394726;28;46466;-81
2022/02/21 00:41:07;;;;;;;;;6.75;1.50;;;;;11.43;51.22;100874.19;2394903;28;45210;-80
2022/02/21 00:42:21;;;;;;;;;2.00;1.75;;;;;11.39;50.46;100886.59;2394662;28;46265;-81
2022/02/21 00:43:32;;;;;;;;;10.25;2.25;;;;;11.42;51.83;100886.50;2394269;28;45328;-81
2022/02/21 00:44:42;;;;;;;;;5.25;1.75;;;;;11.41;51.28;100876.84;2394825;28;45352;-81
2022/02/21 00:45:53;;;;;;;;;3.25;3.25;;;;;11.41;51.61;100900.53;2395795;28;45222;-80
2022/02/21 00:47:04;;;;;;;;;2.50;2.25;;;;;11.41;51.95;100900.53;2400497;28;45372;-80
2022/02/21 00:48:14;;;;;;;;;7.00;3.00;;;;;11.38;50.87;100887.50;2394871;28;44664;-80
2022/02/21 00:49:24;;;;;;;;;9.00;4.00;;;;;11.37;52.13;100891.03;2394563;28;45420;-81
2022/02/21 00:50:35;;;;;;;;;5.25;4.50;;;;;11.37;52.30;100909.47;2394661;28;44767;-80
2022/02/21 00:51:45;;;;;;;;;4.50;3.50;;;;;11.37;51.77;100898.94;2394633;28;46118;-80
2022/02/21 00:52:56;;;;;;;;;4.75;3.50;;;;;11.36;51.86;100899.84;2395211;28;44776;-80
2022/02/21 00:54:06;;;;;;;;;7.75;4.75;;;;;11.34;49.49;100904.28;2398373;28;46389;-79
2022/02/21 00:55:17;;;;;;;;;4.50;2.00;;;;;11.32;49.97;100914.03;2394693;28;45191;-80
2022/02/21 00:56:27;;;;;;;;;5.75;2.50;;;;;11.29;49.03;100900.97;2394628;28;45226;-80
2022/02/21 00:57:38;;;;;;;;;5.25;3.00;;;;;11.24;51.12;100909.00;2393927;28;45342;-80
2022/02/21 00:58:48;;;;;;;;;5.50;2.50;;;;;11.22;51.32;100898.53;2393971;28;46705;-80
2022/02/21 00:59:58;;;;;;;;;4.75;3.50;;;;;11.23;52.10;100913.44;2394722;28;45123;-80
2022/02/21 01:01:09;;;;;;;;;4.25;3.00;;;;;11.26;51.24;100909.81;2394307;28;46191;-80
2022/02/21 01:02:19;;;;;;;;;6.00;1.75;;;;;11.25;52.27;100906.34;2394634;28;45280;-81
2022/02/21 01:03:29;;;;;;;;;5.50;3.00;;;;;11.27;52.95;100911.53;2398568;28;46477;-82
2022/02/21 01:04:40;;;;;;;;;5.75;4.25;;;;;11.30;52.15;100936.91;2394502;28;45266;-81
2022/02/21 01:05:51;;;;;;;;;12.25;5.25;;;;;11.31;51.25;100930.75;2394158;28;46716;-81
2022/02/21 01:07:01;;;;;;;;;10.75;3.25;;;;;11.31;51.04;100936.84;2394783;28;44682;-80
2022/02/21 01:08:11;;;;;;;;;6.50;0.50;;;;;11.29;50.34;100943.06;2394384;28;45480;-80
2022/02/21 01:09:22;;;;;;;;;8.00;2.75;;;;;11.31;51.67;100957.06;2394493;28;44743;-81
2022/02/21 01:10:33;;;;;;;;;8.50;2.50;;;;;11.30;52.91;100971.09;2394127;28;46532;-81
2022/02/21 01:11:43;;;;;;;;;4.75;4.00;;;;;11.30;52.67;101000.91;2394689;28;45283;-81
2022/02/21 01:12:53;;;;;;;;;6.75;3.00;;;;;11.27;54.03;100998.38;2393853;28;46574;-81
2022/02/21 01:14:04;;;;;;;;;2.00;0.50;;;;;11.17;59.12;101065.34;2398482;28;44632;-81
2022/02/21 01:15:14;;;;;;;;;6.50;2.00;;;;;11.01;59.60;101066.66;2393818;28;46162;-81
2022/02/21 01:16:26;;;;;;;;;5.00;2.00;;;;;10.78;58.92;101062.09;2394421;28;44625;-80
2022/02/21 01:17:36;;;;;;;;;2.00;1.00;;;;;10.58;60.90;101050.38;2394451;28;46509;-80
2022/02/21 01:18:46;;;;;;;;;2.50;1.00;;;;;10.33;61.53;101035.25;2394580;28;45462;-83
2022/02/21 01:19:59;;;;;;;;;2.00;2.00;;;;;10.16;60.60;101025.19;2394412;28;45968;-82
2022/02/21 01:21:10;;;;;;;;;3.25;1.75;;;;;10.00;60.26;101015.09;2394153;28;45497;-81
2022/02/21 01:22:20;;;;;;;;;4.50;1.50;;;;;9.88;61.11;101006.63;2394544;28;45376;-82
2022/02/21 01:23:30;;;;;;;;;0.00;0.00;;;;;9.77;61.36;100998.16;2399355;28;45687;-82
2022/02/21 01:24:41;;;;;;;;;2.25;1.75;;;;;9.70;60.51;101001.84;2394234;28;45423;-83
2022/02/21 01:25:51;;;;;;;;;4.00;2.00;;;;;9.60;60.93;101003.84;2394471;28;44786;-83
2022/02/21 01:27:02;;;;;;;;;3.00;0.25;;;;;9.51;61.18;100997.91;2394313;28;45504;-83
2022/02/21 01:28:12;;;;;;;;;3.00;1.00;;;;;9.49;62.25;101009.34;2394613;28;45369;-82
2022/02/21 01:29:23;;;;;;;;;5.00;0.75;;;;;9.40;61.99;101000.81;2394242;28;46448;-82
2022/02/21 01:30:33;;;;;;;;;1.75;0.75;;;;;9.39;61.88;101003.44;2394445;28;45225;-82
2022/02/21 01:31:44;;;;;;;;;3.75;1.50;;;;;9.36;62.43;100993.88;2397497;28;46165;-82
2022/02/21 01:32:54;;;;;;;;;3.50;1.75;;;;;9.37;62.08;101000.88;2400961;28;45436;-81
2022/02/21 01:34:04;;;;;;;;;4.50;2.00;;;;;9.34;62.99;101006.19;2388756;28;45283;-82
2022/02/21 01:35:15;;;;;;;;;3.50;1.00;;;;;9.33;62.57;101004.47;2394046;28;45251;-82
2022/02/21 01:36:25;;;;;;;;;3.00;1.00;;;;;9.32;62.50;101010.59;2394404;28;46423;-83
2022/02/21 01:37:35;;;;;;;;;3.75;2.00;;;;;9.28;62.60;101006.34;2394514;28;45326;-83
2022/02/21 01:38:46;;;;;;;;;2.25;1.75;;;;;9.29;62.83;101013.28;2394227;28;46289;-83
2022/02/21 01:39:56;;;;;;;;;4.75;2.00;;;;;9.27;63.33;101008.09;2393737;28;45171;-83
2022/02/21 01:41:07;;;;;;;;;2.00;1.00;;;;;9.31;63.22;101012.34;2393646;28;45508;-81
2022/02/21 01:42:17;;;;;;;;;2.00;1.00;;;;;9.28;62.84;101001.97;2401891;28;45162;-81
2022/02/21 01:43:28;;;;;;;;;1.25;1.00;;;;;9.28;62.85;101006.34;2396620;28;46412;-81
2022/02/21 01:44:41;;;;;;;;;3.00;1.75;;;;;9.26;62.40;101011.59;2393898;28;45592;-80
2022/02/21 01:45:51;;;;;;;;;4.75;2.25;;;;;9.26;62.65;101018.63;2393891;28;45661;-80
2022/02/21 01:47:02;;;;;;;;;3.00;2.00;;;;;9.27;63.24;101023.81;2394153;28;44652;-84
2022/02/21 01:48:13;;;;;;;;;4.75;3.25;;;;;9.27;62.45;101017.72;2394068;28;47475;-83
2022/02/21 01:49:23;;;;;;;;;5.50;2.00;;;;;9.27;62.11;101031.69;2394340;28;45342;-85
2022/02/21 01:50:35;;;;;;;;;3.50;1.00;;;;;9.29;62.64;101040.38;2393306;28;47097;-86
2022/02/21 01:51:45;;;;;;;;;4.50;2.75;;;;;9.30;62.94;101051.75;2396255;28;45529;-85
2022/02/21 01:52:56;;;;;;;;;5.75;2.00;;;;;9.30;62.84;101068.34;2400648;28;46377;-86
2022/02/21 01:54:09;;;;;;;;;2.25;1.00;;;;;9.26;62.17;101076.34;2393882;28;45741;-87
2022/02/21 01:55:20;;;;;;;;;2.75;2.50;;;;;9.25;63.75;101064.97;2394191;28;45377;-83
2022/02/21 01:56:30;;;;;;;;;2.00;1.00;;;;;9.21;63.32;101058.91;2394234;28;44769;-82
2022/02/21 01:57:44;;;;;;;;;2.25;1.50;;;;;9.16;62.98;101054.69;2394053;28;45246;-84
2022/02/21 01:58:54;;;;;;;;;4.75;2.00;;;;;9.14;62.27;101040.72;2393449;28;45241;-84
2022/02/21 02:00:06;;;;;;;;;2.75;2.00;;;;;9.08;62.93;101031.25;2393490;28;45404;-86
2022/02/21 02:01:16;;;;;;;;;7.50;3.50;;;;;9.07;62.98;101034.75;2394079;28;45214;-86
2022/02/21 02:02:26;;;;;;;;;2.50;1.00;;;;;9.04;63.53;101026.97;2401181;28;48210;-85
2022/02/21 02:03:37;;;;;;;;;2.75;2.00;;;;;9.03;63.00;101022.63;2394938;28;45504;-85
2022/02/21 02:04:47;;;;;;;;;3.50;2.00;;;;;9.02;63.21;101031.38;2393740;28;46175;-84
2022/02/21 02:05:57;;;;;;;;;3.75;1.00;;;;;8.99;63.31;101020.06;2394006;28;45167;-85
2022/02/21 02:07:11;;;;;;;;;2.50;2.00;;;;;8.98;63.93;101015.72;2394194;28;46297;-85
2022/02/21 02:08:21;;;;;;;;;3.50;2.75;;;;;8.99;63.56;101025.31;2394119;28;45217;-85
2022/02/21 02:09:32;;;;;;;;;5.00;1.25;;;;;9.00;63.16;101019.19;2393845;28;45432;-82
2022/02/21 02:10:42;;;;;;;;;3.00;2.25;;;;;9.02;62.72;101023.50;2394253;28;45513;-82
2022/02/21 02:11:53;;;;;;;;;4.50;2.00;;;;;9.00;62.68;101023.56;2397344;28;45552;-82
2022/02/21 02:13:03;;;;;;;;;3.50;2.00;;;;;8.99;62.79;101021.81;2399870;28;44650;-82
2022/02/21 02:14:29;;;;;;;;;2.00;2.00;;;;;8.95;62.41;101018.41;2393759;28;45298;-84
2022/02/21 02:15:39;;;;;;;;;4.00;2.00;;;;;8.96;62.55;101021.91;2393930;28;45619;-85
2022/02/21 02:16:50;;;;;;;;;6.50;2.50;;;;;8.93;62.69;101011.47;2393422;28;45449;-84
2022/02/21 02:18:00;;;;;;;;;3.00;2.00;;;;;8.94;62.80;101015.84;2394268;28;45233;-85
2022/02/21 02:19:11;;;;;;;;;5.75;2.75;;;;;8.92;62.61;101015.84;2393817;28;45440;-85
2022/02/21 02:20:21;;;;;;;;;6.00;3.75;;;;;8.92;62.32;101013.22;2394034;28;45530;-83
2022/02/21 02:21:37;;;;;;;;;3.25;2.25;;;;;8.95;62.56;101015.78;2393425;28;47134;-81
2022/02/21 02:22:47;;;;;;;;;5.00;2.75;;;;;8.96;62.00;101008.78;2394011;28;45259;-81
2022/02/21 02:23:58;;;;;;;;;5.00;1.50;;;;;8.94;61.80;101011.44;2395433;28;47788;-81
2022/02/21 02:25:08;;;;;;;;;7.75;3.50;;;;;8.96;62.80;101007.00;2400429;28;45317;-80
2022/02/21 02:26:20;;;;;;;;;5.00;3.25;;;;;9.02;62.19;101013.00;2393424;28;46594;-81
2022/02/21 02:27:31;;;;;;;;;5.00;2.50;;;;;9.00;61.77;101013.06;2393761;28;45404;-80
2022/02/21 02:28:42;;;;;;;;;6.25;3.50;;;;;9.03;61.93;101012.13;2394906;28;45316;-80
2022/02/21 02:29:55;;;;;;;;;8.00;2.00;;;;;9.03;62.40;101004.25;2394015;28;45438;-81
2022/02/21 02:31:05;;;;;;;;;5.00;2.75;;;;;9.04;62.00;101009.47;2393692;28;46379;-80
2022/02/21 02:32:16;;;;;;;;;9.25;4.25;;;;;9.08;62.26;101012.91;2393338;28;45181;-80
2022/02/21 02:33:26;;;;;;;;;3.00;3.00;;;;;9.08;62.21;101018.16;2393884;28;45547;-79
2022/02/21 02:34:42;;;;;;;;;4.00;2.00;;;;;9.10;62.12;101014.59;2393820;28;45234;-80
2022/02/21 02:35:53;;;;;;;;;5.75;3.50;;;;;9.09;61.78;101014.59;2393648;28;45534;-80
2022/02/21 02:37:03;;;;;;;;;6.25;3.00;;;;;9.11;61.23;101011.06;2394040;28;45310;-80
2022/02/21 02:38:14;;;;;;;;;5.75;3.50;;;;;9.12;62.10;101014.53;2393787;28;46512;-80
2022/02/21 02:39:25;;;;;;;;;5.00;2.50;;;;;9.15;62.08;101017.09;2398526;28;45155;-80
2022/02/21 02:40:37;;;;;;;;;4.25;1.50;;;;;9.15;62.02;101011.88;2393953;28;45399;-80
2022/02/21 02:41:47;;;;;;;;;5.00;2.75;;;;;9.19;62.11;101010.88;2393945;28;45369;-80
2022/02/21 02:42:57;;;;;;;;;6.25;1.75;;;;;9.22;61.92;101013.44;2393579;28;45210;-79
2022/02/21 02:44:08;;;;;;;;;5.25;3.00;;;;;9.25;62.11;101009.88;2393923;28;45311;-79
2022/02/21 02:45:18;;;;;;;;;9.50;4.25;;;;;9.26;61.81;101010.75;2393768;28;45440;-81
2022/02/21 02:46:29;;;;;;;;;5.25;3.75;;;;;9.28;62.15;101012.44;2393361;28;45304;-81
2022/02/21 02:47:39;;;;;;;;;7.00;3.00;;;;;9.31;62.34;101014.16;2393793;28;45373;-81
2022/02/21 02:48:49;;;;;;;;;7.75;2.00;;;;;9.33;62.18;101007.94;2395810;28;44679;-81
2022/02/21 02:50:00;;;;;;;;;4.75;1.75;;;;;9.37;61.84;101019.22;2395944;28;45489;-81
2022/02/21 02:51:10;;;;;;;;;9.25;5.00;;;;;9.36;61.65;101022.75;2393861;28;45444;-81
2022/02/21 02:52:20;;;;;;;;;7.75;4.50;;;;;9.34;60.93;101014.91;2393577;28;45368;-82
2022/02/21 02:53:31;;;;;;;;;8.50;5.00;;;;;9.36;61.32;101020.13;2393886;28;45447;-82
2022/02/21 02:54:41;;;;;;;;;5.25;3.00;;;;;9.34;60.59;101017.53;2393636;28;45461;-82
2022/02/21 02:55:52;;;;;;;;;7.25;6.25;;;;;9.37;61.53;101020.97;2395020;28;44803;-81
2022/02/21 02:57:02;;;;;;;;;6.50;5.25;;;;;9.39;60.68;101013.94;2393796;28;45269;-81
2022/02/21 02:58:13;;;;;;;;;7.00;5.00;;;;;9.37;60.58;101016.59;2393778;28;45294;-81
2022/02/21 02:59:25;;;;;;;;;10.25;4.50;;;;;9.38;60.79;101013.09;2393570;28;46177;-81
2022/02/21 03:00:35;;;;;;;;;7.50;4.00;;;;;9.43;59.98;101026.09;2393930;28;45330;-81
2022/02/21 03:01:45;;;;;;;;;8.00;5.75;;;;;9.42;60.52;101022.63;2393394;28;46380;-82
2022/02/21 03:02:56;;;;;;;;;11.00;5.25;;;;;9.40;59.73;101024.41;2393641;28;45218;-83
2022/02/21 03:04:07;;;;;;;;;6.00;4.25;;;;;9.40;59.72;101031.41;2393682;28;45286;-82
2022/02/21 03:05:17;;;;;;;;;6.50;2.75;;;;;9.40;59.02;101023.53;2393027;28;45191;-82
2022/02/21 03:06:29;;;;;;;;;6.50;5.00;;;;;9.37;58.86;101021.84;2394615;28;45310;-82
2022/02/21 03:07:39;;;;;;;;;7.75;2.25;;;;;9.38;59.71;101034.09;2393832;28;45263;-82
2022/02/21 03:08:50;;;;;;;;;9.50;3.25;;;;;9.42;59.36;101020.00;2393521;28;46526;-83
2022/02/21 03:10:01;;;;;;;;;7.75;4.00;;;;;9.41;58.77;101026.13;2393515;28;44750;-83
2022/02/21 03:11:11;;;;;;;;;11.50;6.50;;;;;9.41;60.02;101020.88;2393472;28;46277;-83
2022/02/21 03:12:22;;;;;;;;;8.75;6.50;;;;;9.46;59.90;101028.63;2393509;28;45330;-81
2022/02/21 03:13:32;;;;;;;;;8.25;5.50;;;;;9.47;59.98;101029.50;2393487;28;46197;-81
2022/02/21 03:14:42;;;;;;;;;7.00;4.50;;;;;9.47;59.91;101022.50;2393384;28;45392;-80
2022/02/21 03:15:53;;;;;;;;;9.00;4.00;;;;;9.48;59.35;101012.88;2394465;28;45503;-81
2022/02/21 03:17:03;;;;;;;;;8.50;6.25;;;;;9.49;59.25;101009.34;2394542;28;45357;-80
2022/02/21 03:18:14;;;;;;;;;5.00;3.25;;;;;9.49;59.91;101009.34;2393435;28;46395;-80
2022/02/21 03:19:25;;;;;;;;;6.50;4.00;;;;;9.51;60.39;101015.41;2393726;28;44585;-79
2022/02/21 03:20:36;;;;;;;;;8.00;4.50;;;;;9.51;59.49;100999.66;2393483;28;45438;-79
2022/02/21 03:21:47;;;;;;;;;6.25;3.50;;;;;9.55;58.98;101009.19;2393598;28;45234;-79
2022/02/21 03:22:57;;;;;;;;;9.50;6.00;;;;;9.54;58.75;100997.84;2394146;28;46500;-79
2022/02/21 03:24:07;;;;;;;;;8.50;4.00;;;;;9.55;59.11;101002.19;2400588;28;45154;-79
2022/02/21 03:25:18;;;;;;;;;11.00;4.75;;;;;9.55;59.19;101004.81;2393152;28;45481;-80
2022/02/21 03:26:28;;;;;;;;;11.25;6.00;;;;;9.56;58.49;101005.66;2393662;28;45157;-80
2022/02/21 03:27:41;;;;;;;;;7.75;4.25;;;;;9.55;58.09;101009.19;2393564;28;46482;-80
2022/02/21 03:28:51;;;;;;;;;9.00;4.25;;;;;9.54;58.77;101010.97;2393720;28;45470;-79
2022/02/21 03:30:02;;;;;;;;;8.25;2.50;;;;;9.54;57.90;101013.59;2393395;28;45482;-80
2022/02/21 03:31:13;;;;;;;;;14.50;5.00;;;;;9.53;58.49;101014.47;2392088;28;45409;-80
2022/02/21 03:32:23;;;;;;;;;9.25;4.25;;;;;9.55;58.03;101024.94;2392704;28;46159;-80
2022/02/21 03:33:34;;;;;;;;;8.00;2.00;;;;;9.55;58.32;101028.44;2398501;28;45318;-81
2022/02/21 03:34:44;;;;;;;;;8.75;5.00;;;;;9.57;58.90;101026.63;2393534;28;45460;-82
2022/02/21 03:35:55;;;;;;;;;6.25;5.50;;;;;9.56;57.89;101031.91;2393600;28;45294;-81
2022/02/21 03:37:05;;;;;;;;;7.25;3.25;;;;;9.54;58.70;101024.06;2393211;28;45513;-82
2022/02/21 03:38:16;;;;;;;;;3.75;3.75;;;;;9.53;57.43;101027.59;2393117;28;45266;-81
2022/02/21 03:39:26;;;;;;;;;6.50;3.75;;;;;9.56;58.40;101037.16;2393119;28;46370;-81
2022/02/21 03:40:37;;;;;;;;;3.75;2.25;;;;;9.54;56.59;101031.09;2393266;28;44815;-81
2022/02/21 03:41:47;;;;;;;;;6.25;4.50;;;;;9.54;57.34;101028.47;2393538;28;46253;-81
2022/02/21 03:42:58;;;;;;;;;6.00;3.25;;;;;9.52;57.87;101027.63;2394158;28;44612;-80
2022/02/21 03:44:08;;;;;;;;;4.75;3.25;;;;;9.50;58.60;101026.81;2396051;28;45234;-81
2022/02/21 03:45:25;;;;;;;;;6.00;5.00;;;;;9.49;58.67;101023.31;2392240;28;45258;-81
2022/02/21 03:46:39;;;;;;;;;4.25;3.25;;;;;9.52;57.77;101038.13;2392687;28;45523;-81
2022/02/21 03:47:51;;;;;;;;;3.50;3.00;;;;;9.51;58.26;101033.78;2393424;28;44697;-80
2022/02/21 03:49:01;;;;;;;;;4.25;2.00;;;;;9.46;57.85;101031.25;2393433;28;45351;-81
2022/02/21 03:50:12;;;;;;;;;4.00;2.25;;;;;9.48;57.33;101033.88;2393240;28;45352;-81
2022/02/21 03:51:22;;;;;;;;;3.00;0.75;;;;;9.42;57.92;101033.09;2393650;28;46345;-80
2022/02/21 03:52:32;;;;;;;;;5.00;3.50;;;;;9.42;56.18;101040.13;2396506;28;45440;-80
2022/02/21 03:53:43;;;;;;;;;6.50;3.25;;;;;9.45;57.44;101024.31;2392745;28;45528;-80
2022/02/21 03:54:53;;;;;;;;;4.25;4.25;;;;;9.43;57.94;101032.19;2393275;28;45458;-80
2022/02/21 03:56:04;;;;;;;;;11.00;4.50;;;;;9.42;57.77;101025.25;2393248;28;45619;-81
2022/02/21 03:57:14;;;;;;;;;7.00;4.00;;;;;9.42;58.05;101027.00;2393418;28;45476;-81
2022/02/21 03:58:24;;;;;;;;;8.00;4.25;;;;;9.44;57.50;101036.56;2393190;28;45493;-80
2022/02/21 03:59:35;;;;;;;;;4.25;2.25;;;;;9.42;58.54;101027.00;2393357;28;45284;-81
2022/02/21 04:00:45;;;;;;;;;2.25;0.75;;;;;9.48;58.40;101041.75;2393079;28;45575;-84
2022/02/21 04:01:56;;;;;;;;;6.50;3.00;;;;;9.43;57.56;101032.19;2397034;28;45190;-80
2022/02/21 04:03:06;;;;;;;;;3.50;3.00;;;;;9.46;57.50;101033.88;2393309;28;45209;-81
2022/02/21 04:04:16;;;;;;;;;3.50;2.00;;;;;9.47;57.54;101035.63;2393410;28;45247;-81
2022/02/21 04:05:27;;;;;;;;;5.00;2.25;;;;;9.51;56.89;101039.03;2392876;28;45350;-79
2022/02/21 04:06:37;;;;;;;;;2.75;2.25;;;;;9.50;58.22;101029.44;2393431;28;45197;-78
2022/02/21 04:07:47;;;;;;;;;5.00;2.25;;;;;9.53;57.55;101034.63;2393195;28;45393;-79
2022/02/21 04:08:58;;;;;;;;;5.00;2.00;;;;;9.51;57.74;101039.03;2393528;28;45180;-80
2022/02/21 04:10:13;;;;;;;;;4.25;3.00;;;;;9.53;57.24;101040.72;2393037;28;45321;-79
2022/02/21 04:11:23;;;;;;;;;5.00;4.00;;;;;9.55;57.89;101046.81;2392706;28;45447;-80
2022/02/21 04:12:34;;;;;;;;;5.00;1.50;;;;;9.54;57.27;101042.44;2396856;28;45404;-79
2022/02/21 04:13:44;;;;;;;;;5.50;4.25;;;;;9.55;56.93;101056.44;2392925;28;45195;-79
2022/02/21 04:14:54;;;;;;;;;4.00;3.25;;;;;9.55;57.78;101040.69;2393242;28;45241;-79
2022/02/21 04:16:05;;;;;;;;;3.00;2.50;;;;;9.59;57.84;101044.97;2393134;28;45347;-79
2022/02/21 04:17:16;;;;;;;;;2.00;2.00;;;;;9.62;57.15;101050.16;2393184;28;45449;-78
2022/02/21 04:18:27;;;;;;;;;3.50;3.00;;;;;9.61;56.95;101045.78;2393406;28;45242;-78
2022/02/21 04:19:37;;;;;;;;;8.50;4.00;;;;;9.59;56.83;101042.34;2393043;28;45357;-79
2022/02/21 04:20:47;;;;;;;;;5.25;2.50;;;;;9.60;55.69;101043.22;2393066;28;45215;-78
2022/02/21 04:21:59;;;;;;;;;6.25;4.00;;;;;9.62;57.56;101044.91;2397060;28;46438;-78
2022/02/21 04:23:09;;;;;;;;;7.75;4.25;;;;;9.63;57.44;101038.72;2397041;28;45352;-78
2022/02/21 04:24:19;;;;;;;;;2.25;2.25;;;;;9.64;57.38;101040.47;2393096;28;45398;-78
2022/02/21 04:25:30;;;;;;;;;5.75;3.00;;;;;9.66;57.12;101043.91;2393200;28;45343;-79
2022/02/21 04:26:40;;;;;;;;;2.75;2.75;;;;;9.67;56.83;101037.78;2393089;28;46069;-81
2022/02/21 04:27:53;;;;;;;;;7.50;3.75;;;;;9.67;57.40;101037.78;2393366;28;44809;-81
2022/02/21 04:29:03;;;;;;;;;4.50;2.75;;;;;9.67;57.14;101040.41;2393120;28;45380;-80
2022/02/21 04:30:16;;;;;;;;;3.25;2.50;;;;;9.71;56.66;101048.19;2393171;28;45274;-80
2022/02/21 04:31:26;;;;;;;;;5.00;3.50;;;;;9.71;57.62;101038.53;2392491;28;46822;-77
2022/02/21 04:32:38;;;;;;;;;5.00;3.50;;;;;9.74;57.88;101037.63;2397038;28;44622;-77
2022/02/21 04:33:49;;;;;;;;;4.00;3.00;;;;;9.73;57.53;101035.91;2392820;28;46341;-77
2022/02/21 04:34:59;;;;;;;;;3.00;2.75;;;;;9.72;56.29;101034.16;2393183;28;45302;-77
2022/02/21 04:36:10;;;;;;;;;1.00;1.00;;;;;9.72;56.88;101035.03;2393076;28;45336;-77
2022/02/21 04:37:20;;;;;;;;;4.00;3.00;;;;;9.74;57.08;101040.25;2393155;28;45361;-76
2022/02/21 04:38:30;;;;;;;;;3.00;2.00;;;;;9.75;56.74;101041.97;2392710;28;45463;-76
2022/02/21 04:39:41;;;;;;;;;4.25;2.25;;;;;9.77;57.35;101035.78;2393305;28;45414;-80
2022/02/21 04:40:51;;;;;;;;;5.00;3.50;;;;;9.73;57.07;101043.78;2392882;28;45254;-80
2022/02/21 04:42:02;;;;;;;;;5.00;2.25;;;;;9.74;56.76;101041.09;2396951;28;45223;-80
2022/02/21 04:43:12;;;;;;;;;5.75;3.25;;;;;9.74;57.19;101035.84;2392896;28;45547;-80
2022/02/21 04:44:23;;;;;;;;;6.25;3.00;;;;;9.72;55.84;101034.16;2393239;28;45353;-80
2022/02/21 04:45:33;;;;;;;;;4.75;3.50;;;;;9.71;56.82;101040.31;2392850;28;45348;-80
2022/02/21 04:46:43;;;;;;;;;2.50;2.50;;;;;9.70;56.42;101030.72;2392868;28;45334;-80
2022/02/21 04:47:54;;;;;;;;;4.00;1.25;;;;;9.70;56.47;101026.34;2393006;28;46088;-80
2022/02/21 04:49:04;;;;;;;;;4.50;3.25;;;;;9.70;56.98;101033.34;2393220;28;45221;-81
2022/02/21 04:50:15;;;;;;;;;5.75;3.50;;;;;9.71;57.23;101029.81;2392871;28;45262;-81
2022/02/21 04:51:26;;;;;;;;;3.00;2.00;;;;;9.70;56.66;101041.22;2392705;28;44801;-81
2022/02/21 04:52:37;;;;;;;;;2.50;2.50;;;;;9.68;57.22;101044.72;2397551;28;46219;-81
2022/02/21 04:53:48;;;;;;;;;2.00;1.50;;;;;9.66;56.64;101041.28;2392935;28;45424;-81
2022/02/21 04:54:58;;;;;;;;;6.00;4.00;;;;;9.68;57.48;101041.25;2392251;28;46248;-81
2022/02/21 04:56:09;;;;;;;;;2.25;1.75;;;;;9.65;57.25;101046.59;2393923;28;45262;-81
2022/02/21 04:57:19;;;;;;;;;4.25;1.50;;;;;9.65;56.98;101057.97;2394519;28;45352;-83
2022/02/21 04:58:29;;;;;;;;;6.00;2.75;;;;;9.63;56.86;101048.38;2394848;28;45380;-80
2022/02/21 04:59:40;;;;;;;;;2.00;0.75;;;;;9.59;56.73;101044.09;2394665;28;45306;-80
2022/02/21 05:00:50;;;;;;;;;2.00;1.00;;;;;9.57;57.39;101039.75;2394191;28;44814;-81
2022/02/21 05:02:01;;;;;;;;;6.00;3.00;;;;;9.56;56.71;101029.28;2398105;28;45421;-82
2022/02/21 05:03:12;;;;;;;;;1.75;0.00;;;;;9.57;56.51;101031.88;2393471;28;45381;-81
2022/02/21 05:04:22;;;;;;;;;4.00;2.00;;;;;9.53;57.09;101024.13;2393320;28;45588;-82
2022/02/21 05:05:32;;;;;;;;;6.00;2.00;;;;;9.54;56.58;101024.06;2394530;28;45395;-80
2022/02/21 05:06:43;;;;;;;;;3.00;2.00;;;;;9.53;57.05;101024.97;2394489;28;45601;-80
2022/02/21 05:07:53;;;;;;;;;4.00;3.00;;;;;9.53;57.08;101024.13;2394741;28;45361;-80
2022/02/21 05:09:03;;;;;;;;;4.75;2.75;;;;;9.55;57.11;101040.69;2394423;28;46403;-80
2022/02/21 05:10:14;;;;;;;;;1.75;0.75;;;;;9.52;56.73;101036.38;2394377;28;45244;-81
2022/02/21 05:11:24;;;;;;;;;5.50;3.00;;;;;9.54;57.28;101039.81;2393451;28;48363;-80
2022/02/21 05:12:35;;;;;;;;;5.50;2.00;;;;;9.50;57.50;101046.06;2394106;28;45259;-79
2022/02/21 05:13:46;;;;;;;;;4.00;2.00;;;;;9.50;57.24;101034.69;2394183;28;45359;-79
2022/02/21 05:14:56;;;;;;;;;5.00;1.75;;;;;9.48;57.08;101036.50;2394657;28;45271;-79
2022/02/21 05:16:06;;;;;;;;;5.50;3.25;;;;;9.50;57.38;101032.94;2393813;28;45227;-79
2022/02/21 05:17:17;;;;;;;;;4.25;1.75;;;;;9.47;57.36;101042.63;2394273;28;44774;-79
2022/02/21 05:18:27;;;;;;;;;6.25;2.50;;;;;9.46;57.37;101036.50;2394392;28;45322;-79
2022/02/21 05:19:38;;;;;;;;;1.25;1.00;;;;;9.45;55.70;101035.66;2394457;28;45161;-79
2022/02/21 05:20:48;;;;;;;;;1.00;1.00;;;;;9.42;57.16;101045.34;2394547;28;45168;-79
2022/02/21 05:21:59;;;;;;;;;3.25;3.00;;;;;9.41;57.62;101041.88;2396333;28;45173;-77
2022/02/21 05:23:09;;;;;;;;;4.00;3.00;;;;;9.41;57.65;101054.97;2400482;28;45262;-77
2022/02/21 05:24:19;;;;;;;;;4.00;2.00;;;;;9.40;57.07;101047.16;2394602;28;45384;-77
2022/02/21 05:25:30;;;;;;;;;5.50;2.50;;;;;9.38;57.00;101056.84;2394329;28;46350;-77
2022/02/21 05:26:40;;;;;;;;;2.00;1.50;;;;;9.34;57.51;101048.16;2394459;28;45216;-78
2022/02/21 05:27:51;;;;;;;;;3.25;2.00;;;;;9.31;57.57;101043.84;2394461;28;46370;-78
2022/02/21 05:29:01;;;;;;;;;5.00;3.25;;;;;9.28;57.11;101037.81;2394675;28;45452;-79
2022/02/21 05:30:13;;;;;;;;;6.50;4.00;;;;;9.32;57.23;101047.31;2394229;28;46432;-80
2022/02/21 05:31:24;;;;;;;;;2.25;2.25;;;;;9.29;57.37;101036.91;2394226;28;44754;-78
2022/02/21 05:32:34;;;;;;;;;5.75;2.75;;;;;9.30;57.35;101036.00;2400686;28;45404;-78